Time;durP1;ratioP1;P1;durP2;ratioP2;P2;SDS_P1;SDS_P2;PMS_P1;PMS_P2;Temp;Humidity;BMP_temperature;BMP_pressure;BME280_temperature;BME280_humidity;BME280_pressure;Samples;Min_cycle;Max_cycle;Signal;HPM_P1;HPM_P2
2022/10/04 00:01:42;;;;;;;5.90;1.60;;;12.80;99.90;;;;;;5035794;28;20088;-87
2022/10/04 00:04:14;;;;;;;3.67;1.35;;;12.80;99.90;;;;;;5035494;28;20056;-86
2022/10/04 00:06:52;;;;;;;3.58;1.33;;;12.80;99.90;;;;;;5034829;28;20042;-85
2022/10/04 00:09:25;;;;;;;2.92;1.40;;;12.80;99.90;;;;;;5033947;28;20044;-86
2022/10/04 00:11:54;;;;;;;6.00;1.38;;;12.80;99.90;;;;;;5034510;28;20119;-85
2022/10/04 00:14:47;;;;;;;6.10;1.17;;;12.80;99.90;;;;;;5017524;28;20053;-87
2022/10/04 00:17:23;;;;;;;7.63;1.40;;;12.80;99.90;;;;;;5031850;28;20052;-86
2022/10/04 00:19:50;;;;;;;4.15;1.00;;;12.80;99.90;;;;;;5034874;28;20066;-87
2022/10/04 00:22:18;;;;;;;4.88;1.20;;;13.00;99.90;;;;;;5025938;28;20030;-86
2022/10/04 00:25:06;;;;;;;6.72;1.30;;;12.90;99.90;;;;;;5026772;28;20030;-87
2022/10/04 00:27:37;;;;;;;8.40;1.70;;;13.00;99.90;;;;;;5025353;28;20026;-87
2022/10/04 00:30:03;;;;;;;3.58;1.42;;;13.00;99.90;;;;;;5034889;28;20022;-86
2022/10/04 00:32:30;;;;;;;1.60;1.10;;;13.00;99.90;;;;;;5035759;28;20038;-86
2022/10/04 00:34:58;;;;;;;4.65;1.17;;;13.00;99.90;;;;;;5034829;28;20018;-88
2022/10/04 00:37:26;;;;;;;4.72;1.65;;;13.10;99.90;;;;;;5035517;28;20058;-87
2022/10/04 00:40:11;;;;;;;2.70;1.35;;;13.10;99.90;;;;;;5019198;28;20037;-86
2022/10/04 00:42:51;;;;;;;4.72;1.38;;;13.10;99.90;;;;;;5035349;28;20097;-86
2022/10/04 00:45:29;;;;;;;3.72;1.30;;;13.20;99.90;;;;;;5022156;28;20109;-86
2022/10/04 00:48:04;;;;;;;6.45;1.08;;;13.20;99.90;;;;;;5021282;28;20425;-88
2022/10/04 00:50:50;;;;;;;4.87;1.40;;;13.20;99.90;;;;;;5020818;28;20041;-85
2022/10/04 00:53:46;;;;;;;4.68;1.17;;;13.20;99.90;;;;;;5023842;28;20065;-87
2022/10/04 00:56:19;;;;;;;5.82;1.27;;;13.20;99.90;;;;;;5025799;28;20102;-85
2022/10/04 00:58:56;;;;;;;4.03;1.02;;;13.20;99.90;;;;;;5011010;28;20057;-86
2022/10/04 01:01:26;;;;;;;2.70;1.20;;;13.30;99.90;;;;;;5028049;28;20080;-86
2022/10/04 01:03:55;;;;;;;5.25;1.48;;;13.30;99.90;;;;;;5028587;28;20104;-86
2022/10/04 01:06:22;;;;;;;2.70;1.35;;;13.20;99.90;;;;;;5033502;28;20021;-85
2022/10/04 01:08:52;;;;;;;2.50;1.35;;;13.20;99.90;;;;;;5035207;28;20049;-86
2022/10/04 01:11:21;;;;;;;5.65;1.20;;;13.10;99.90;;;;;;5032151;28;20045;-86
2022/10/04 01:13:57;;;;;;;2.08;1.10;;;13.10;99.90;;;;;;5030537;28;20029;-86
2022/10/04 01:16:36;;;;;;;7.35;1.58;;;13.10;99.90;;;;;;5032595;28;20393;-87
2022/10/04 01:19:20;;;;;;;6.68;1.20;;;13.10;99.90;;;;;;5032955;28;20089;-86
2022/10/04 01:21:56;;;;;;;3.53;1.58;;;13.10;99.90;;;;;;5027235;28;20022;-88
2022/10/04 01:24:23;;;;;;;6.68;1.40;;;13.10;99.90;;;;;;5031500;28;20036;-88
2022/10/04 01:26:49;;;;;;;5.20;1.38;;;13.10;99.90;;;;;;5032257;28;20034;-87
2022/10/04 01:29:24;;;;;;;4.90;1.55;;;13.10;99.90;;;;;;5015135;28;20033;-88
2022/10/04 01:31:52;;;;;;;5.18;1.92;;;13.10;99.90;;;;;;5035093;28;20014;-86
2022/10/04 01:34:23;;;;;;;5.40;1.30;;;13.00;99.90;;;;;;5039460;28;20022;-86
2022/10/04 01:36:53;;;;;;;3.85;1.30;;;13.10;99.90;;;;;;5038576;28;20050;-86
2022/10/04 01:39:21;;;;;;;7.05;1.52;;;13.10;99.90;;;;;;5039035;28;20038;-85
2022/10/04 01:41:57;;;;;;;3.60;1.15;;;13.20;99.90;;;;;;5039370;28;20033;-86
2022/10/04 01:44:40;;;;;;;5.30;1.58;;;13.10;99.90;;;;;;5033036;28;20037;-85
2022/10/04 01:47:51;;;;;;;7.03;1.50;;;13.10;99.90;;;;;;5011320;28;20056;-86
2022/10/04 01:50:30;;;;;;;4.95;1.30;;;13.20;99.90;;;;;;5018798;28;20038;-87
2022/10/04 01:53:43;;;;;;;2.33;0.90;;;13.20;99.90;;;;;;5033526;28;20057;-86
2022/10/04 01:56:30;;;;;;;2.67;1.20;;;13.20;99.90;;;;;;5037866;28;20044;-84
2022/10/04 01:59:12;;;;;;;3.78;1.50;;;13.10;99.90;;;;;;5028114;28;20034;-84
2022/10/04 02:01:51;;;;;;;2.78;1.27;;;13.10;99.90;;;;;;5009332;28;20045;-87
2022/10/04 02:04:40;;;;;;;6.28;1.50;;;13.10;99.90;;;;;;5007327;28;20030;-86
2022/10/04 02:07:14;;;;;;;3.13;1.40;;;13.00;99.90;;;;;;5023459;28;20035;-84
2022/10/04 02:09:44;;;;;;;4.85;1.80;;;13.00;99.90;;;;;;5023644;28;20062;-85
2022/10/04 02:12:18;;;;;;;9.68;1.55;;;13.10;99.90;;;;;;5008467;28;20489;-85
2022/10/04 02:14:52;;;;;;;5.93;1.90;;;13.10;99.90;;;;;;5023025;28;20042;-87
2022/10/04 02:17:27;;;;;;;3.38;1.80;;;13.00;99.90;;;;;;5007153;28;20052;-87
2022/10/04 02:19:56;;;;;;;6.75;1.67;;;13.00;99.90;;;;;;5023327;28;20030;-86
2022/10/04 02:22:24;;;;;;;3.78;1.83;;;13.00;99.90;;;;;;5018827;28;20117;-85
2022/10/04 02:24:54;;;;;;;10.63;2.00;;;13.00;99.90;;;;;;5003763;28;20029;-88
2022/10/04 02:27:28;;;;;;;9.20;1.80;;;12.90;99.90;;;;;;5000690;28;20086;-85
2022/10/04 02:30:04;;;;;;;6.55;1.83;;;13.00;99.90;;;;;;5015960;28;20026;-86
2022/10/04 02:35:18;;;;;;;5.18;1.90;;;13.00;99.90;;;;;;5017658;28;20499;-86
2022/10/04 02:37:52;;;;;;;6.85;1.33;;;13.00;99.90;;;;;;5018643;28;20030;-85
2022/10/04 02:40:25;;;;;;;4.90;1.90;;;13.00;99.90;;;;;;5017523;28;20092;-86
2022/10/04 02:43:14;;;;;;;5.78;1.90;;;12.90;99.90;;;;;;5019215;28;20030;-86
2022/10/04 02:46:18;;;;;;;2.80;1.50;;;12.90;99.90;;;;;;5018203;28;20096;-88
2022/10/04 02:49:43;;;;;;;6.57;1.25;;;12.90;99.90;;;;;;5020021;28;20027;-86
2022/10/04 02:52:15;;;;;;;3.00;1.63;;;12.90;99.90;;;;;;4967604;28;20047;-85
2022/10/04 02:54:51;;;;;;;4.78;1.77;;;12.90;99.90;;;;;;5008581;28;20033;-90
2022/10/04 02:57:22;;;;;;;10.07;2.03;;;12.90;99.90;;;;;;5036624;28;20054;-88
2022/10/04 02:59:49;;;;;;;3.40;1.45;;;12.90;99.90;;;;;;5035998;28;20030;-82
2022/10/04 03:02:28;;;;;;;6.03;1.30;;;12.90;99.90;;;;;;5036388;28;20018;-83
2022/10/04 03:04:59;;;;;;;1.92;1.25;;;12.90;99.90;;;;;;5036710;28;20078;-83
2022/10/04 03:07:25;;;;;;;5.88;1.63;;;12.90;99.90;;;;;;5023619;28;20098;-86
2022/10/04 03:09:52;;;;;;;4.82;1.40;;;12.90;99.90;;;;;;5022823;28;20096;-86
2022/10/04 03:12:19;;;;;;;8.25;1.90;;;12.80;99.90;;;;;;5025348;28;20026;-84
2022/10/04 03:14:45;;;;;;;4.78;1.38;;;12.80;99.90;;;;;;5030164;28;20014;-84
2022/10/04 03:17:14;;;;;;;6.38;1.60;;;12.80;99.90;;;;;;5050790;22;20040;-84
2022/10/04 03:19:41;;;;;;;8.90;1.55;;;12.80;99.90;;;;;;5055494;28;20025;-84
2022/10/04 03:22:10;;;;;;;4.45;1.80;;;12.80;99.90;;;;;;5053671;28;20038;-82
2022/10/04 03:24:48;;;;;;;6.20;1.80;;;12.80;99.90;;;;;;5037166;28;20010;-82
2022/10/04 03:27:23;;;;;;;3.53;1.75;;;12.80;99.90;;;;;;5040217;28;20037;-83
2022/10/04 03:29:50;;;;;;;4.53;1.58;;;12.80;99.90;;;;;;5054181;28;20115;-83
2022/10/04 03:32:17;;;;;;;5.50;1.67;;;12.80;99.90;;;;;;5053363;28;20034;-84
2022/10/04 03:34:54;;;;;;;9.77;2.40;;;12.70;99.90;;;;;;5052709;28;20065;-82
2022/10/04 03:37:20;;;;;;;9.20;1.95;;;12.70;99.90;;;;;;5050947;28;20044;-85
2022/10/04 03:39:51;;;;;;;4.50;1.73;;;12.80;99.90;;;;;;5049513;28;20057;-85
2022/10/04 03:42:18;;;;;;;12.00;2.58;;;12.80;99.90;;;;;;5034523;28;20033;-83
2022/10/04 03:44:45;;;;;;;5.50;1.55;;;12.70;99.90;;;;;;5053079;28;20018;-83
2022/10/04 03:47:20;;;;;;;6.60;2.30;;;12.70;99.90;;;;;;5054309;28;20025;-84
2022/10/04 03:49:47;;;;;;;5.57;1.73;;;12.70;99.90;;;;;;5048578;28;20048;-84
2022/10/04 03:52:39;;;;;;;7.05;2.22;;;12.70;99.90;;;;;;5053252;28;20025;-83
2022/10/04 03:55:07;;;;;;;6.63;1.90;;;12.60;99.90;;;;;;5053624;28;20033;-84
2022/10/04 03:57:35;;;;;;;5.15;2.25;;;12.60;99.90;;;;;;5053684;28;20033;-84
2022/10/04 04:00:05;;;;;;;6.18;2.05;;;12.70;99.90;;;;;;5051901;28;20057;-85
2022/10/04 04:02:46;;;;;;;6.70;1.92;;;12.60;99.90;;;;;;5045635;28;20104;-84
2022/10/04 04:05:19;;;;;;;5.97;2.30;;;12.60;99.90;;;;;;5052989;28;20049;-83
2022/10/04 04:07:51;;;;;;;7.53;2.80;;;12.60;99.90;;;;;;5046948;28;20104;-84
2022/10/04 04:10:31;;;;;;;4.25;1.90;;;12.60;99.90;;;;;;5050654;28;20014;-84
2022/10/04 04:13:32;;;;;;;8.38;2.20;;;12.60;99.90;;;;;;5052129;28;20033;-84
2022/10/04 04:16:01;;;;;;;5.80;1.85;;;12.50;99.90;;;;;;5052289;28;20017;-84
2022/10/04 04:18:32;;;;;;;12.88;2.70;;;12.50;99.90;;;;;;5054399;28;20044;-84
2022/10/04 04:21:00;;;;;;;6.78;2.40;;;12.50;99.90;;;;;;5056791;28;20025;-84
2022/10/04 04:23:37;;;;;;;6.43;2.05;;;12.50;99.90;;;;;;5056585;28;20021;-83
2022/10/04 04:26:33;;;;;;;13.13;2.47;;;12.50;99.90;;;;;;5055283;28;20029;-84
2022/10/04 04:29:21;;;;;;;9.48;2.58;;;12.50;99.90;;;;;;5052398;28;20040;-84
2022/10/04 04:32:14;;;;;;;10.80;2.53;;;12.50;99.90;;;;;;5029575;28;20028;-85
2022/10/04 04:34:52;;;;;;;7.32;2.83;;;12.50;99.90;;;;;;5050953;28;20187;-84
2022/10/04 04:37:19;;;;;;;4.43;1.77;;;12.50;99.90;;;;;;5051890;28;20033;-82
2022/10/04 04:39:50;;;;;;;6.47;2.05;;;12.50;99.90;;;;;;5046093;28;20021;-83
2022/10/04 04:42:20;;;;;;;7.82;2.08;;;12.50;99.90;;;;;;5029739;28;20055;-83
2022/10/04 04:44:59;;;;;;;7.72;2.33;;;12.50;99.90;;;;;;5047962;28;20125;-83
2022/10/04 04:47:37;;;;;;;3.58;1.95;;;12.50;99.90;;;;;;5057568;28;20021;-83
2022/10/04 04:50:14;;;;;;;8.10;2.10;;;12.50;99.90;;;;;;5058516;28;20029;-85
2022/10/04 04:52:52;;;;;;;6.78;2.28;;;12.50;99.90;;;;;;5060351;28;20041;-83
2022/10/04 04:55:25;;;;;;;6.53;2.00;;;12.50;99.90;;;;;;5059631;28;20030;-83
2022/10/04 04:57:55;;;;;;;5.28;2.10;;;12.60;99.90;;;;;;5059279;28;20045;-83
2022/10/04 05:00:27;;;;;;;8.75;2.13;;;12.60;99.90;;;;;;5050690;28;20018;-83
2022/10/04 05:02:59;;;;;;;4.85;2.65;;;12.60;99.90;;;;;;5040146;28;20053;-83
2022/10/04 05:05:29;;;;;;;6.57;2.13;;;12.60;99.90;;;;;;5042952;28;20116;-82
2022/10/04 05:08:37;;;;;;;9.65;2.15;;;12.60;99.90;;;;;;5046543;28;20052;-82
2022/10/04 05:11:08;;;;;;;13.50;2.30;;;12.60;99.90;;;;;;4986007;28;20193;-83
2022/10/04 05:13:53;;;;;;;5.13;2.00;;;12.60;99.90;;;;;;4986883;28;20030;-80
2022/10/04 05:16:28;;;;;;;6.75;2.25;;;12.60;99.90;;;;;;5030634;28;20061;-82
2022/10/04 05:19:04;;;;;;;8.85;2.63;;;12.60;99.90;;;;;;5046432;28;20068;-82
2022/10/04 05:21:32;;;;;;;6.43;2.13;;;12.60;99.90;;;;;;5045548;28;20036;-82
2022/10/04 05:24:10;;;;;;;6.97;2.67;;;12.60;99.90;;;;;;5054043;28;20017;-83
2022/10/04 05:26:36;;;;;;;13.38;2.80;;;12.60;99.90;;;;;;5057614;28;20063;-82
2022/10/04 05:29:10;;;;;;;7.25;2.47;;;12.60;99.90;;;;;;5049062;28;20037;-83
2022/10/04 05:31:53;;;;;;;15.45;2.97;;;12.60;99.90;;;;;;5032143;28;20168;-83
2022/10/04 05:34:25;;;;;;;8.75;2.58;;;12.60;99.90;;;;;;5028984;28;20049;-83
2022/10/04 05:37:19;;;;;;;9.77;2.72;;;12.70;99.90;;;;;;5029640;28;20033;-84
2022/10/04 05:40:12;;;;;;;10.02;2.60;;;12.60;99.90;;;;;;5021662;28;20153;-83
2022/10/04 05:42:45;;;;;;;8.02;2.60;;;12.60;99.90;;;;;;5028688;28;20041;-84
2022/10/04 05:45:24;;;;;;;10.43;3.58;;;12.60;99.90;;;;;;5033434;28;20041;-82
2022/10/04 05:47:53;;;;;;;7.50;2.58;;;12.70;99.90;;;;;;5029869;28;20022;-82
2022/10/04 05:50:40;;;;;;;14.00;2.67;;;12.70;99.90;;;;;;5027902;28;20110;-82
2022/10/04 05:53:31;;;;;;;11.40;2.78;;;12.70;99.90;;;;;;5029655;28;20022;-81
2022/10/04 05:56:00;;;;;;;10.35;2.40;;;12.70;99.90;;;;;;5038370;28;20054;-83
2022/10/04 05:58:38;;;;;;;8.23;2.33;;;12.80;99.90;;;;;;5038260;28;20045;-86
2022/10/04 06:01:24;;;;;;;10.27;2.92;;;12.80;99.90;;;;;;5037488;28;20093;-84
2022/10/04 06:04:28;;;;;;;7.35;2.38;;;12.80;99.90;;;;;;5037999;28;20053;-83
2022/10/04 06:07:03;;;;;;;11.98;2.72;;;12.80;99.90;;;;;;5036542;28;20045;-82
2022/10/04 06:09:50;;;;;;;8.30;2.65;;;12.90;99.90;;;;;;5032641;28;20458;-82
2022/10/04 06:12:34;;;;;;;8.95;2.35;;;12.80;99.90;;;;;;5023659;28;20030;-82
2022/10/04 06:15:07;;;;;;;7.47;2.20;;;12.90;99.90;;;;;;5025837;28;20096;-84
2022/10/04 06:17:51;;;;;;;8.43;2.40;;;12.90;99.90;;;;;;5030842;28;20041;-83
2022/10/04 06:20:30;;;;;;;14.38;2.60;;;12.90;99.90;;;;;;5034683;28;20026;-83
2022/10/04 06:23:04;;;;;;;6.70;2.63;;;13.00;99.90;;;;;;5034138;28;20030;-82
2022/10/04 06:25:42;;;;;;;8.93;2.60;;;13.10;99.90;;;;;;5036004;28;20105;-83
2022/10/04 06:28:46;;;;;;;10.15;2.60;;;13.10;99.90;;;;;;5035386;28;20100;-82
2022/10/04 06:31:18;;;;;;;14.52;2.60;;;13.20;99.90;;;;;;5033927;28;20105;-81
2022/10/04 06:33:55;;;;;;;7.10;2.33;;;13.20;99.90;;;;;;5026756;28;20037;-82
2022/10/04 06:36:46;;;;;;;10.52;2.58;;;13.20;99.90;;;;;;5024600;28;20121;-83
2022/10/04 06:39:41;;;;;;;12.70;2.15;;;13.30;99.90;;;;;;5025356;28;20038;-83
2022/10/04 06:42:32;;;;;;;9.63;2.67;;;13.30;99.90;;;;;;5027154;28;20065;-84
2022/10/04 06:45:30;;;;;;;10.75;2.25;;;13.30;99.90;;;;;;5029255;28;20029;-82
2022/10/04 06:48:20;;;;;;;7.90;2.38;;;13.40;99.90;;;;;;5034402;28;20101;-82
2022/10/04 06:50:52;;;;;;;10.13;2.55;;;13.40;99.90;;;;;;5049588;28;20068;-84
2022/10/04 06:53:29;;;;;;;10.32;2.58;;;13.50;99.90;;;;;;5050856;28;20036;-84
2022/10/04 06:56:19;;;;;;;6.78;2.22;;;13.60;99.90;;;;;;5046425;28;20044;-83
2022/10/04 06:58:54;;;;;;;5.82;2.45;;;13.60;99.90;;;;;;5050545;28;20047;-82
2022/10/04 07:01:28;;;;;;;;;;;13.50;99.90;;;;;;5045785;28;20120;-83
2022/10/04 07:04:03;;;;;;;6.10;2.30;;;13.50;99.90;;;;;;5047919;28;19928;-83
2022/10/04 07:06:39;;;;;;;12.25;2.25;;;13.60;99.90;;;;;;5049791;28;20052;-83
2022/10/04 07:09:14;;;;;;;5.18;2.08;;;13.60;99.90;;;;;;5046424;28;20029;-82
2022/10/04 07:11:48;;;;;;;11.82;2.70;;;13.60;99.90;;;;;;5047877;28;20220;-83
2022/10/04 07:14:30;;;;;;;6.35;2.22;;;13.70;99.90;;;;;;5051189;28;20060;-80
2022/10/04 07:17:04;;;;;;;7.38;2.53;;;13.70;99.90;;;;;;5053597;28;20036;-82
2022/10/04 07:19:36;;;;;;;10.15;2.30;;;13.80;99.90;;;;;;5047835;28;20041;-82
2022/10/04 07:22:10;;;;;;;5.88;2.75;;;13.80;99.90;;;;;;5040715;28;20022;-84
2022/10/04 07:24:46;;;;;;;8.35;2.15;;;13.80;99.90;;;;;;5042088;28;20063;-81
2022/10/04 07:27:17;;;;;;;8.75;2.72;;;13.90;99.90;;;;;;5043834;28;20235;-83
2022/10/04 07:29:47;;;;;;;9.13;2.08;;;14.00;99.90;;;;;;5028979;28;20038;-83
2022/10/04 07:32:20;;;;;;;6.90;2.20;;;14.10;99.90;;;;;;5030713;28;20103;-82
2022/10/04 07:34:54;;;;;;;7.35;2.58;;;14.20;99.90;;;;;;5035078;28;20034;-83
2022/10/04 07:37:20;;;;;;;10.13;4.00;;;14.40;99.90;;;;;;5033181;28;20068;-85
2022/10/04 07:39:56;;;;;;;14.43;2.75;;;14.50;99.90;;;;;;5032797;28;20026;-84
2022/10/04 07:42:27;;;;;;;11.23;2.95;;;14.60;99.90;;;;;;5044646;28;20047;-84
2022/10/04 07:45:14;;;;;;;6.22;2.38;;;14.80;99.90;;;;;;5045195;28;20029;-83
2022/10/04 07:47:41;;;;;;;6.70;2.65;;;15.00;99.90;;;;;;5048373;28;20044;-83
2022/10/04 07:50:31;;;;;;;8.95;2.25;;;15.00;99.90;;;;;;5038936;28;20026;-84
2022/10/04 07:53:13;;;;;;;4.82;2.30;;;15.10;99.90;;;;;;5036730;28;20029;-83
2022/10/04 07:56:06;;;;;;;7.95;2.47;;;15.20;99.90;;;;;;5035882;28;20025;-84
2022/10/04 07:59:10;;;;;;;6.47;2.65;;;15.30;99.90;;;;;;5035316;28;20030;-83
2022/10/04 08:01:54;;;;;;;11.38;2.53;;;15.50;99.90;;;;;;5038626;28;20018;-83
2022/10/04 08:04:44;;;;;;;10.05;3.13;;;15.70;99.90;;;;;;5034409;28;20101;-83
2022/10/04 08:07:39;;;;;;;14.27;2.85;;;15.70;99.90;;;;;;5039256;28;20101;-83
2022/10/04 08:10:40;;;;;;;15.80;2.88;;;15.80;99.90;;;;;;5036952;28;20038;-83
2022/10/04 08:13:21;;;;;;;7.85;2.30;;;16.00;99.90;;;;;;5047058;28;20048;-84
2022/10/04 08:15:49;;;;;;;8.27;2.08;;;16.20;99.90;;;;;;5046868;28;20064;-82
2022/10/04 08:18:39;;;;;;;8.27;2.15;;;16.20;99.90;;;;;;5046177;28;20277;-84
2022/10/04 08:21:08;;;;;;;11.27;2.53;;;16.30;99.90;;;;;;5043929;28;20041;-84
2022/10/04 08:23:42;;;;;;;15.35;2.83;;;16.50;99.90;;;;;;5048578;28;20013;-83
2022/10/04 08:26:17;;;;;;;6.32;1.90;;;16.70;99.90;;;;;;5054130;28;20099;-84
2022/10/04 08:31:59;;;;;;;4.15;1.90;;;17.10;99.90;;;;;;5042040;28;20099;-84
2022/10/04 08:34:43;;;;;;;5.47;1.98;;;17.20;99.90;;;;;;5052780;28;20038;-84
2022/10/04 08:37:30;;;;;;;14.20;3.03;;;17.20;99.90;;;;;;5050881;28;20029;-85
2022/10/04 08:40:22;;;;;;;10.85;2.25;;;17.10;99.90;;;;;;5049991;28;20051;-83
2022/10/04 08:43:14;;;;;;;3.40;1.70;;;17.10;99.90;;;;;;5047885;28;20088;-83
2022/10/04 08:46:17;;;;;;;11.98;1.58;;;17.10;99.90;;;;;;5050541;28;20064;-83
2022/10/04 08:49:04;;;;;;;9.02;1.65;;;17.00;99.90;;;;;;5053967;28;20038;-83
2022/10/04 08:51:57;;;;;;;11.40;1.75;;;16.80;99.90;;;;;;5050920;28;20060;-84
2022/10/04 08:54:48;;;;;;;10.15;2.20;;;16.80;99.90;;;;;;5049626;28;20116;-84
2022/10/04 08:57:40;;;;;;;4.00;1.75;;;16.80;99.90;;;;;;5048915;28;20048;-84
2022/10/04 09:00:31;;;;;;;6.63;1.80;;;16.90;99.90;;;;;;5012992;28;20049;-83
2022/10/04 09:03:17;;;;;;;10.48;1.90;;;16.90;99.90;;;;;;5029634;28;20120;-85
2022/10/04 09:06:05;;;;;;;5.18;1.73;;;16.80;99.90;;;;;;4999039;28;20042;-84
2022/10/04 09:08:51;;;;;;;5.15;1.60;;;16.80;99.90;;;;;;5028738;28;20018;-84
2022/10/04 09:11:20;;;;;;;6.20;1.90;;;16.70;99.90;;;;;;5030665;28;20049;-84
2022/10/04 09:14:10;;;;;;;6.10;1.40;;;16.90;99.90;;;;;;5048344;28;20026;-83
2022/10/04 09:17:21;;;;;;;4.57;1.80;;;16.90;99.90;;;;;;5047681;28;20045;-84
2022/10/04 09:20:12;;;;;;;6.63;1.80;;;17.20;99.90;;;;;;5047042;22;20054;-87
2022/10/04 09:23:03;;;;;;;3.95;1.60;;;17.30;99.90;;;;;;5028864;28;20121;-87
2022/10/04 09:25:49;;;;;;;9.55;1.88;;;17.30;99.90;;;;;;5028040;28;20438;-88
2022/10/04 09:28:47;;;;;;;6.50;1.80;;;17.20;99.90;;;;;;5029154;28;20572;-88
2022/10/04 09:31:36;;;;;;;6.47;1.70;;;17.30;99.90;;;;;;5033126;28;20058;-87
2022/10/04 09:34:10;;;;;;;4.38;1.58;;;17.30;99.90;;;;;;5029863;28;20034;-86
2022/10/04 09:36:51;;;;;;;9.57;1.95;;;17.40;99.90;;;;;;5029934;28;20041;-83
2022/10/04 09:39:19;;;;;;;8.25;1.98;;;17.60;99.90;;;;;;5035987;28;20068;-83
2022/10/04 09:42:03;;;;;;;13.05;2.00;;;17.60;99.90;;;;;;5037212;28;20036;-83
2022/10/04 09:44:29;;;;;;;17.35;2.40;;;17.50;99.90;;;;;;5035544;28;20045;-83
2022/10/04 09:47:30;;;;;;;4.80;1.60;;;17.50;99.90;;;;;;5034557;28;20053;-84
2022/10/04 09:50:06;;;;;;;8.02;2.08;;;17.40;99.90;;;;;;5035571;28;20026;-85
2022/10/04 09:52:41;;;;;;;7.47;1.60;;;17.50;99.90;;;;;;5033014;28;20068;-84
2022/10/04 09:55:33;;;;;;;6.65;1.63;;;17.60;99.90;;;;;;5053329;28;20024;-86
2022/10/04 09:58:28;;;;;;;7.50;1.75;;;17.70;99.90;;;;;;5046984;28;20041;-85
2022/10/04 10:01:21;;;;;;;6.13;1.85;;;17.80;99.90;;;;;;5053069;28;20038;-84
2022/10/04 10:04:11;;;;;;;8.98;1.88;;;18.10;99.90;;;;;;5053797;28;20030;-85
2022/10/04 10:06:45;;;;;;;10.45;1.55;;;18.50;99.90;;;;;;5011804;28;20045;-86
2022/10/04 10:15:41;;;;;;;5.43;1.50;;;20.10;99.90;;;;;;5058148;28;20038;-88
2022/10/04 10:18:13;;;;;;;10.38;2.53;;;21.40;99.90;;;;;;5042783;28;20034;-88
2022/10/04 10:21:15;;;;;;;10.65;2.03;;;23.00;97.60;;;;;;5058511;28;20033;-86
2022/10/04 10:24:28;;;;;;;6.47;1.85;;;23.90;95.20;;;;;;5016667;28;20045;-87
2022/10/04 10:27:32;;;;;;;5.63;1.70;;;25.30;93.10;;;;;;5057651;28;20041;-87
2022/10/04 10:30:15;;;;;;;4.70;1.85;;;26.20;90.80;;;;;;5032436;28;20141;-85
2022/10/04 10:32:53;;;;;;;4.55;1.73;;;25.90;89.90;;;;;;5049845;28;20049;-86
2022/10/04 10:35:50;;;;;;;7.47;1.70;;;26.10;89.70;;;;;;5039894;28;20035;-83
2022/10/04 10:38:34;;;;;;;7.72;1.80;;;26.40;87.70;;;;;;5042158;28;20064;-83
2022/10/04 10:41:30;;;;;;;4.65;1.58;;;26.90;85.50;;;;;;5055525;28;20021;-83
2022/10/04 10:44:28;;;;;;;5.18;1.67;;;26.50;84.50;;;;;;5057604;28;20029;-84
2022/10/04 10:46:56;;;;;;;6.00;1.45;;;25.60;84.00;;;;;;5055210;28;20017;-85
2022/10/04 10:49:49;;;;;;;5.03;1.20;;;24.60;84.40;;;;;;5057626;28;20081;-81
2022/10/04 10:52:25;;;;;;;8.60;1.83;;;24.00;85.70;;;;;;5045938;28;20052;-83
2022/10/04 10:55:28;;;;;;;3.05;1.40;;;24.40;86.80;;;;;;5039243;28;20034;-85
2022/10/04 10:58:40;;;;;;;7.05;1.40;;;26.20;82.50;;;;;;5043502;28;20044;-85
2022/10/04 11:01:21;;;;;;;7.35;1.42;;;26.90;80.70;;;;;;5008499;28;20033;-84
2022/10/04 11:03:49;;;;;;;4.40;1.33;;;27.20;79.70;;;;;;5043536;28;20025;-83
2022/10/04 11:06:54;;;;;;;10.30;1.60;;;27.00;79.60;;;;;;5038930;28;20029;-85
2022/10/04 11:09:33;;;;;;;3.38;1.48;;;25.80;81.10;;;;;;5038186;28;20022;-85
2022/10/04 11:12:27;;;;;;;5.05;1.55;;;25.10;82.20;;;;;;5046104;28;20093;-84
2022/10/04 11:15:27;;;;;;;6.57;1.63;;;24.20;83.80;;;;;;5030762;28;20026;-85
2022/10/04 11:18:18;;;;;;;6.82;1.63;;;23.90;84.30;;;;;;5033716;28;20046;-85
2022/10/04 11:20:44;;;;;;;6.90;1.80;;;24.70;83.30;;;;;;5027691;28;20045;-88
2022/10/04 11:23:36;;;;;;;8.35;1.65;;;24.30;83.00;;;;;;5029165;28;20085;-89
2022/10/04 11:26:32;;;;;;;6.95;1.40;;;23.60;84.50;;;;;;5029587;28;20117;-86
2022/10/04 11:29:19;;;;;;;7.43;1.67;;;23.10;85.30;;;;;;5025304;28;20465;-85
2022/10/04 11:32:18;;;;;;;7.75;1.48;;;22.40;86.90;;;;;;5024734;28;20018;-88
2022/10/04 11:35:15;;;;;;;4.55;1.42;;;21.70;89.10;;;;;;5028717;28;20385;-87
2022/10/04 11:38:18;;;;;;;7.50;1.52;;;21.30;90.10;;;;;;5039217;28;20050;-86
2022/10/04 11:41:10;;;;;;;8.68;1.98;;;22.00;89.60;;;;;;5024537;28;20068;-89
2022/10/04 11:44:13;;;;;;;5.25;1.45;;;23.80;85.90;;;;;;5009067;28;20041;-89
2022/10/04 11:47:08;;;;;;;6.85;1.58;;;25.40;82.50;;;;;;5024455;28;20073;-86
2022/10/04 11:49:56;;;;;;;4.88;1.35;;;26.60;79.50;;;;;;5029942;28;20053;-87
2022/10/04 11:52:43;;;;;;;4.32;1.45;;;27.40;77.40;;;;;;5026252;28;20034;-84
2022/10/04 11:55:52;;;;;;;10.10;1.83;;;26.70;77.20;;;;;;5035696;28;20025;-85
2022/10/04 11:58:37;;;;;;;2.88;1.30;;;26.00;79.10;;;;;;5017834;28;20971;-85
2022/10/04 12:01:15;;;;;;;;;;;26.00;77.80;;;;;;5032457;28;20026;-88
2022/10/04 12:03:50;;;;;;;6.72;1.42;;;25.30;77.80;;;;;;5026798;28;19913;-86
2022/10/04 12:06:42;;;;;;;3.63;1.40;;;23.70;80.70;;;;;;5025844;28;20037;-86
2022/10/04 12:09:19;;;;;;;3.72;1.30;;;23.00;82.50;;;;;;5030652;28;20114;-86
2022/10/04 12:14:59;;;;;;;7.85;1.92;;;22.00;86.10;;;;;;5036435;28;20026;-85
2022/10/04 12:17:54;;;;;;;3.53;1.48;;;21.90;86.90;;;;;;5036205;28;20022;-85
2022/10/04 12:20:58;;;;;;;7.18;1.17;;;21.90;86.80;;;;;;5036393;28;20041;-86
2022/10/04 12:23:40;;;;;;;6.93;1.88;;;21.70;86.90;;;;;;5035292;28;20041;-83
2022/10/04 12:26:31;;;;;;;6.05;1.50;;;21.40;87.90;;;;;;5036123;28;20037;-84
2022/10/04 12:29:12;;;;;;;4.32;1.27;;;21.10;88.40;;;;;;5033800;28;20049;-87
2022/10/04 12:31:48;;;;;;;8.20;1.75;;;21.00;89.10;;;;;;5035436;28;20081;-83
2022/10/04 12:34:23;;;;;;;5.13;1.55;;;22.20;86.70;;;;;;5038463;28;20089;-84
2022/10/04 12:37:05;;;;;;;5.35;1.75;;;23.40;83.70;;;;;;5046313;28;20029;-85
2022/10/04 12:39:49;;;;;;;7.60;1.75;;;23.80;83.20;;;;;;5047709;28;20033;-85
2022/10/04 12:42:28;;;;;;;5.75;1.67;;;23.80;83.10;;;;;;5041112;28;20060;-88
2022/10/04 12:45:12;;;;;;;6.47;1.50;;;23.10;84.10;;;;;;5037257;28;20030;-85
2022/10/04 12:48:04;;;;;;;6.38;1.20;;;22.60;85.10;;;;;;5029585;28;20026;-87
2022/10/04 12:50:58;;;;;;;7.68;1.60;;;21.80;85.00;;;;;;5050152;28;20101;-86
2022/10/04 12:53:39;;;;;;;5.38;1.50;;;20.90;87.00;;;;;;5059057;28;20041;-85
2022/10/04 12:56:27;;;;;;;3.65;1.27;;;20.40;88.30;;;;;;5046109;28;20036;-86
2022/10/04 12:59:37;;;;;;;7.45;1.58;;;20.00;90.10;;;;;;5044839;28;20046;-86
2022/10/04 13:02:31;;;;;;;8.13;1.80;;;19.90;90.80;;;;;;5011079;28;20037;-84
2022/10/04 13:04:58;;;;;;;4.85;1.55;;;20.10;91.20;;;;;;5032512;28;20018;-84
2022/10/04 13:07:43;;;;;;;5.95;1.63;;;21.70;90.00;;;;;;5023068;28;20042;-86
2022/10/04 13:10:17;;;;;;;4.60;1.75;;;24.00;84.90;;;;;;5039205;28;20048;-86
2022/10/04 13:12:46;;;;;;;;;;;24.20;83.50;;;;;;5040278;28;20021;-85
2022/10/04 13:15:31;;;;;;;9.27;1.58;;;23.90;83.70;;;;;;5039185;28;19921;-86
2022/10/04 13:18:13;;;;;;;6.05;1.48;;;23.10;84.60;;;;;;5038632;28;20030;-86
2022/10/04 13:20:57;;;;;;;4.78;1.67;;;22.30;86.50;;;;;;5039605;28;20049;-84
2022/10/04 13:23:32;;;;;;;3.23;1.43;;;21.80;87.00;;;;;;5039541;28;20099;-87
2022/10/04 13:26:22;;;;;;;6.07;1.40;;;21.20;88.10;;;;;;5040093;28;20016;-87
2022/10/04 13:29:12;;;;;;;5.95;1.70;;;20.80;88.80;;;;;;5038509;28;20034;-87
2022/10/04 13:31:48;;;;;;;6.22;1.60;;;20.20;90.00;;;;;;5036720;28;20033;-87
2022/10/04 13:34:23;;;;;;;9.05;1.88;;;19.90;90.50;;;;;;5031142;28;20033;-88
2022/10/04 13:36:55;;;;;;;;;;;19.70;91.00;;;;;;5033888;28;20029;-88
2022/10/04 13:39:58;;;;;;;4.90;1.50;;;19.50;91.40;;;;;;5031953;28;19932;-88
2022/10/04 13:42:33;;;;;;;3.30;1.50;;;19.50;91.20;;;;;;5030031;28;20036;-88
2022/10/04 13:45:33;;;;;;;4.75;1.40;;;19.40;91.50;;;;;;5027981;28;20112;-88
2022/10/04 13:48:23;;;;;;;5.13;1.40;;;19.30;91.80;;;;;;5030304;28;20429;-85
2022/10/04 13:50:58;;;;;;;4.82;1.58;;;19.30;92.00;;;;;;5029335;28;20060;-89
2022/10/04 13:56:55;;;;;;;4.55;1.50;;;19.80;91.90;;;;;;5029983;28;20072;-87
2022/10/04 13:59:41;;;;;;;9.60;1.75;;;19.70;91.40;;;;;;5027118;28;20045;-88
2022/10/04 14:02:45;;;;;;;3.63;1.63;;;19.60;91.80;;;;;;5027056;28;20037;-86
2022/10/04 14:05:17;;;;;;;3.38;1.67;;;19.50;91.90;;;;;;5027725;28;20034;-89
2022/10/04 14:07:57;;;;;;;7.22;1.67;;;19.50;92.10;;;;;;5028026;28;20033;-89
2022/10/04 14:11:07;;;;;;;3.38;1.50;;;19.40;92.20;;;;;;5027522;28;20026;-88
2022/10/04 14:14:09;;;;;;;4.15;1.48;;;19.50;92.50;;;;;;5002168;28;20062;-85
2022/10/04 14:17:12;;;;;;;8.70;1.92;;;19.60;92.00;;;;;;5037431;28;20034;-85